09/22 18:26 更新

弱い雨が降っている
800ftに雲が少し
1,500ftに雲が多い
2,000ftに雲が多い

地上風: 100°3kt
(060°~ 150°で変動)

上空風(熊谷ウインドプロファイラ)
13,000ft: 230°32kt
10,000ft: 200°32kt
 7,000ft: 160°21kt
 3,000ft: 110°6kt

地上: 22℃
上空: 6.5℃

日没: 17:39

実況天気図


予想天気図


RJTJ 220926Z 10003KT 060V150 2500 -SHRA BR FEW008 BKN015 BKN020 22/20 Q1017 RMK 1ST008 5CU015 7CU020 A3004=

GPV気象予報
気象庁
日本気象協会

玉淀ダム放流量(1,000m3/sを超えた7時間後にDZ冠水)
太郎衛門橋テレメータ水位(11mでDZ冠水)

skydive.jp